Time;durP1;ratioP1;P1;durP2;ratioP2;P2;SDS_P1;SDS_P2;PMS_P1;PMS_P2;Temp;Humidity;BMP_temperature;BMP_pressure;BME280_temperature;BME280_humidity;BME280_pressure;Samples;Min_cycle;Max_cycle;Signal;HPM_P1;HPM_P2
2024/01/11 12:24:39;;;;;;;117.60;80.57;;;21.70;62.00;;;;;;5081589;27;20597;-69
2024/01/11 12:27:06;;;;;;;123.40;76.40;;;21.70;62.80;;;;;;5056143;28;20684;-70
2024/01/11 12:29:33;;;;;;;79.63;72.60;;;22.10;64.20;;;;;;5060302;28;20294;-72
2024/01/11 12:32:00;;;;;;;109.00;63.13;;;22.60;63.30;;;;;;5057784;28;20667;-73
2024/01/11 12:34:28;;;;;;;70.37;63.27;;;23.00;62.50;;;;;;5060800;28;20288;-70
2024/01/11 12:37:00;;;;;;;69.40;62.37;;;23.50;62.40;;;;;;5065372;28;20208;-69
2024/01/11 12:39:27;;;;;;;108.10;99.20;;;23.80;62.20;;;;;;5064884;28;20200;-77
2024/01/11 12:41:57;;;;;;;87.30;79.47;;;24.30;61.00;;;;;;5065175;28;20204;-75
2024/01/11 12:44:24;;;;;;;79.50;71.80;;;24.70;60.10;;;;;;5065037;28;20621;-79
2024/01/11 12:46:52;;;;;;;102.80;94.63;;;25.20;59.00;;;;;;5065216;28;20279;-75
2024/01/11 12:49:19;;;;;;;96.90;88.37;;;25.60;58.30;;;;;;5065203;28;20211;-73
2024/01/11 12:51:46;;;;;;;103.23;92.47;;;26.00;58.00;;;;;;5063294;28;20288;-77
2024/01/11 12:54:14;;;;;;;98.30;86.77;;;26.40;57.50;;;;;;5057988;28;20214;-77
2024/01/11 12:56:43;;;;;;;88.30;79.93;;;26.70;57.30;;;;;;5061114;28;20240;-73
2024/01/11 12:59:12;;;;;;;105.33;76.60;;;27.00;56.50;;;;;;5060464;28;20204;-75
2024/01/11 13:01:39;;;;;;;66.28;33.83;;;27.30;55.20;;;;;;5059382;28;20444;-77
2024/01/11 13:04:07;;;;;;;78.97;32.77;;;27.40;53.20;;;;;;5064652;28;20231;-79
2024/01/11 13:06:35;;;;;;;49.33;31.63;;;27.70;54.90;;;;;;5064598;28;20203;-78
2024/01/11 13:09:03;;;;;;;56.63;31.03;;;27.90;55.20;;;;;;5063498;28;20231;-78
2024/01/11 13:11:30;;;;;;;37.80;28.63;;;28.20;55.30;;;;;;5065231;28;20198;-71
2024/01/11 13:13:58;;;;;;;54.50;29.70;;;28.40;55.10;;;;;;5065003;28;20247;-74
2024/01/11 13:16:29;;;;;;;53.73;31.00;;;28.60;55.40;;;;;;5064201;28;20199;-77
2024/01/11 13:18:56;;;;;;;55.30;30.65;;;28.90;53.80;;;;;;5060579;28;20228;-77
2024/01/11 13:21:23;;;;;;;50.88;31.90;;;29.00;53.20;;;;;;5063714;28;20302;-81
2024/01/11 13:23:50;;;;;;;52.75;29.58;;;29.20;52.50;;;;;;5062366;28;20235;-80
2024/01/11 13:26:17;;;;;;;85.10;32.60;;;29.30;51.90;;;;;;5061765;28;20594;-71
2024/01/11 13:28:44;;;;;;;77.38;33.65;;;29.40;52.10;;;;;;5060356;28;20444;-68
2024/01/11 13:31:11;;;;;;;48.60;31.02;;;29.30;51.10;;;;;;5062920;28;20287;-65
2024/01/11 13:33:40;;;;;;;57.38;31.23;;;29.30;52.40;;;;;;5062670;28;20282;-70
2024/01/11 13:36:08;;;;;;;49.47;30.60;;;29.30;52.60;;;;;;5049203;28;20200;-72
2024/01/11 13:38:35;;;;;;;58.40;32.88;;;29.30;52.80;;;;;;5035795;28;20282;-69
2024/01/11 13:41:02;;;;;;;50.55;31.30;;;29.30;51.60;;;;;;5037992;28;20275;-67
2024/01/11 13:43:29;;;;;;;57.05;31.75;;;29.50;50.90;;;;;;5050575;28;20232;-68
2024/01/11 13:45:56;;;;;;;49.95;29.85;;;29.70;50.50;;;;;;5049814;28;20291;-66
2024/01/11 13:48:23;;;;;;;47.38;28.83;;;29.80;50.00;;;;;;5043655;28;20299;-66
2024/01/11 13:50:51;;;;;;;46.22;27.30;;;29.90;49.70;;;;;;5048073;28;20283;-66
2024/01/11 13:53:18;;;;;;;47.50;30.45;;;30.00;49.20;;;;;;5049062;28;20294;-67
2024/01/11 13:55:45;;;;;;;52.47;29.90;;;30.10;49.10;;;;;;5049325;28;20200;-67
2024/01/11 13:58:13;;;;;;;86.78;33.30;;;30.20;48.80;;;;;;5049075;28;20211;-66
2024/01/11 14:00:40;;;;;;;52.80;30.42;;;30.20;48.50;;;;;;5049257;28;20209;-66
2024/01/11 14:03:08;;;;;;;57.72;30.85;;;30.30;48.20;;;;;;5048977;28;20641;-67
2024/01/11 14:05:35;;;;;;;90.72;31.45;;;30.30;48.00;;;;;;5048817;28;20189;-66
2024/01/11 14:08:06;;;;;;;51.35;26.83;;;30.30;47.80;;;;;;5048899;28;20201;-66
2024/01/11 14:10:33;;;;;;;86.88;32.22;;;30.40;47.40;;;;;;5048379;28;20636;-68
2024/01/11 14:13:01;;;;;;;46.45;28.52;;;30.40;47.40;;;;;;5048698;28;20738;-66
2024/01/11 14:15:28;;;;;;;40.78;28.67;;;30.50;47.20;;;;;;5049316;28;20207;-66
2024/01/11 14:17:55;;;;;;;50.63;29.55;;;30.50;46.80;;;;;;5049324;28;20224;-67
2024/01/11 14:20:22;;;;;;;56.38;28.38;;;30.50;46.70;;;;;;5049436;28;20296;-67
2024/01/11 14:22:51;;;;;;;53.15;30.25;;;30.50;46.60;;;;;;5048530;28;20222;-66
2024/01/11 14:25:21;;;;;;;47.42;27.73;;;30.60;46.10;;;;;;5049447;28;20200;-66
2024/01/11 14:27:48;;;;;;;45.33;27.63;;;30.60;46.40;;;;;;5048202;28;20204;-67
2024/01/11 14:30:15;;;;;;;44.13;30.30;;;30.60;46.00;;;;;;5048252;28;20988;-67
2024/01/11 14:32:42;;;;;;;78.97;29.65;;;30.60;45.80;;;;;;5046968;28;20687;-67
2024/01/11 14:35:10;;;;;;;49.88;28.45;;;30.60;45.60;;;;;;5049037;28;20711;-67
2024/01/11 14:37:39;;;;;;;43.42;28.00;;;30.60;45.40;;;;;;5048898;28;20663;-67
2024/01/11 14:40:07;;;;;;;42.17;27.02;;;30.60;45.10;;;;;;5045423;28;20204;-67
2024/01/11 14:42:35;;;;;;;42.95;26.88;;;30.60;45.00;;;;;;5049224;28;20200;-67
2024/01/11 14:45:03;;;;;;;48.90;27.90;;;30.60;44.90;;;;;;5047696;28;20238;-67
2024/01/11 14:47:31;;;;;;;57.50;28.08;;;30.60;44.90;;;;;;5047770;28;20195;-68
2024/01/11 14:49:58;;;;;;;47.00;26.08;;;30.60;44.90;;;;;;5048011;28;20204;-67
2024/01/11 14:52:27;;;;;;;47.47;26.60;;;30.60;44.90;;;;;;5048860;28;20266;-68
2024/01/11 14:54:55;;;;;;;49.13;26.90;;;30.60;44.60;;;;;;5048014;28;20203;-67
2024/01/11 14:57:22;;;;;;;42.20;26.38;;;30.60;44.40;;;;;;5048631;28;20958;-68
2024/01/11 14:59:50;;;;;;;43.67;27.08;;;30.60;44.40;;;;;;5048274;28;20188;-68
2024/01/11 15:02:17;;;;;;;46.20;26.92;;;30.60;44.10;;;;;;5046889;28;20207;-67
2024/01/11 15:04:44;;;;;;;47.83;25.58;;;30.60;44.20;;;;;;5048176;28;20216;-69
2024/01/11 15:07:10;;;;;;;46.25;26.17;;;30.50;44.00;;;;;;5047955;28;20208;-68
2024/01/11 15:09:38;;;;;;;49.22;27.58;;;30.60;44.00;;;;;;5047927;28;20211;-69
2024/01/11 15:12:05;;;;;;;46.90;27.58;;;30.50;43.70;;;;;;5048448;28;20234;-72
2024/01/11 15:14:32;;;;;;;56.15;26.23;;;30.50;44.20;;;;;;5047801;28;20385;-70
2024/01/11 15:17:02;;;;;;;51.85;27.05;;;30.50;43.70;;;;;;5048935;28;20287;-69
2024/01/11 15:19:29;;;;;;;42.63;26.45;;;30.50;43.30;;;;;;5048255;28;20196;-71
2024/01/11 15:21:56;;;;;;;52.35;26.65;;;30.50;43.30;;;;;;5047775;28;20266;-70
2024/01/11 15:24:23;;;;;;;46.22;26.50;;;30.50;43.30;;;;;;5047574;28;20238;-70
2024/01/11 15:26:50;;;;;;;43.38;25.90;;;30.40;43.10;;;;;;5045651;28;20204;-67
2024/01/11 15:42:12;;;;;;;96.27;38.37;;;30.40;39.80;;;;;;5128795;27;20566;-95
2024/01/11 15:44:44;;;;;;;112.57;46.27;;;25.30;34.00;;;;;;5094158;28;20207;-95
2024/01/11 15:47:14;;;;;;;104.90;38.57;;;24.80;34.10;;;;;;5093618;28;20224;-94
2024/01/11 15:49:43;;;;;;;110.40;44.20;;;24.30;34.00;;;;;;5094060;28;20222;-94
2024/01/11 15:52:11;;;;;;;121.37;51.07;;;23.70;34.40;;;;;;5092651;28;20233;-95
2024/01/11 15:54:42;;;;;;;107.97;85.60;;;23.10;34.60;;;;;;5101551;28;20202;-95
2024/01/11 15:57:14;;;;;;;81.30;24.47;;;22.60;34.90;;;;;;5092414;28;20210;-94
2024/01/11 15:59:44;;;;;;;81.17;29.33;;;21.90;35.10;;;;;;5095532;28;20232;-95
2024/01/11 16:02:16;;;;;;;71.27;23.43;;;21.20;35.60;;;;;;5095361;28;20207;-94
2024/01/11 16:04:45;;;;;;;80.50;52.37;;;20.60;35.90;;;;;;5090892;28;20199;-95
2024/01/11 16:07:15;;;;;;;82.97;22.50;;;20.00;36.20;;;;;;5079417;28;20208;-94
2024/01/11 16:09:44;;;;;;;93.27;28.43;;;19.50;36.60;;;;;;5091261;28;20226;-95
2024/01/11 16:12:14;;;;;;;81.23;31.50;;;18.90;37.00;;;;;;5089811;28;20223;-94
2024/01/11 16:14:46;;;;;;;85.90;30.53;;;18.10;37.10;;;;;;5096998;28;20215;-96
2024/01/11 16:17:14;;;;;;;74.30;34.10;;;18.00;38.00;;;;;;5096939;28;20198;-96
2024/01/11 16:19:43;;;;;;;97.63;34.37;;;17.50;38.20;;;;;;5102733;28;20216;-95
2024/01/11 16:22:10;;;;;;;112.33;32.37;;;17.10;38.50;;;;;;5096654;28;20203;-96
2024/01/11 16:24:43;;;;;;;86.47;31.50;;;16.70;38.50;;;;;;5101254;28;20191;-95
2024/01/11 16:27:16;;;;;;;73.33;23.47;;;16.40;39.00;;;;;;5102969;28;20191;-94
2024/01/11 16:29:47;;;;;;;53.70;20.97;;;16.00;39.30;;;;;;5090814;28;20670;-93
2024/01/11 16:32:25;;;;;;;50.47;20.43;;;15.60;39.60;;;;;;5087084;28;20546;-95
2024/01/11 16:35:00;;;;;;;51.93;25.47;;;15.30;39.90;;;;;;5096797;28;20720;-95
2024/01/11 16:37:29;;;;;;;73.77;31.97;;;15.00;40.20;;;;;;5092211;28;20203;-94
2024/01/11 16:39:57;;;;;;;78.20;21.20;;;14.50;40.20;;;;;;5077927;28;20531;-95
2024/01/11 16:42:28;;;;;;;54.27;19.03;;;14.40;40.90;;;;;;5079733;28;20270;-96
2024/01/11 16:45:03;;;;;;;71.03;22.20;;;14.10;41.20;;;;;;5091945;28;20202;-95
2024/01/11 16:47:35;;;;;;;77.83;27.20;;;13.90;41.40;;;;;;5087857;28;20669;-94
2024/01/11 16:50:05;;;;;;;77.33;29.50;;;12.20;40.60;;;;;;5081661;28;20238;-94
2024/01/11 16:52:33;;;;;;;147.27;29.10;;;13.30;42.10;;;;;;5076014;28;20255;-94
2024/01/11 16:55:01;;;;;;;83.43;23.83;;;12.90;42.30;;;;;;5076871;28;20285;-94
2024/01/11 16:57:29;;;;;;;125.30;28.13;;;12.70;42.40;;;;;;5072399;28;20203;-94
2024/01/11 16:59:56;;;;;;;93.53;36.50;;;12.80;42.90;;;;;;5065076;28;20213;-94
2024/01/11 17:02:28;;;;;;;98.07;37.70;;;12.60;43.10;;;;;;5063128;28;20205;-94
2024/01/11 17:04:55;;;;;;;111.00;39.10;;;12.40;43.30;;;;;;5074361;28;20685;-94
2024/01/11 17:07:23;;;;;;;96.77;24.73;;;12.20;43.20;;;;;;5074814;28;20721;-94
2024/01/11 17:09:50;;;;;;;109.83;41.77;;;12.10;43.50;;;;;;5058417;28;20268;-95
2024/01/11 17:12:20;;;;;;;93.57;31.87;;;11.90;43.50;;;;;;5060192;28;20306;-93
2024/01/11 17:14:51;;;;;;;96.03;42.17;;;11.80;43.80;;;;;;5072482;28;20217;-94
2024/01/11 17:17:19;;;;;;;85.93;38.07;;;11.70;44.00;;;;;;5055006;28;20207;-94
2024/01/11 17:19:46;;;;;;;83.70;30.40;;;11.60;43.80;;;;;;5059468;28;20288;-94
2024/01/11 17:22:18;;;;;;;97.13;35.30;;;11.40;43.90;;;;;;5060349;28;20197;-94
2024/01/11 17:24:48;;;;;;;74.00;22.40;;;11.40;44.60;;;;;;5062297;28;20210;-94
2024/01/11 17:27:25;;;;;;;91.70;26.03;;;11.20;44.40;;;;;;5064163;28;20207;-95
2024/01/11 17:30:06;;;;;;;73.97;24.87;;;11.10;45.10;;;;;;5061786;28;20285;-95
2024/01/11 17:32:34;;;;;;;89.83;34.40;;;11.00;45.30;;;;;;5061534;28;20192;-95
2024/01/11 17:35:05;;;;;;;95.40;40.10;;;10.90;45.10;;;;;;5065816;28;20227;-94
2024/01/11 17:37:41;;;;;;;100.87;32.00;;;10.90;45.60;;;;;;5060458;28;20243;-95
2024/01/11 17:40:12;;;;;;;107.73;44.37;;;10.70;45.70;;;;;;5057997;28;20218;-94
2024/01/11 17:42:48;;;;;;;120.07;35.37;;;10.60;45.90;;;;;;5056836;28;20535;-94
2024/01/11 17:45:25;;;;;;;81.43;34.13;;;10.50;46.30;;;;;;5059978;28;20189;-94
2024/01/11 17:47:57;;;;;;;82.80;30.87;;;10.50;46.30;;;;;;5063866;28;20249;-94
2024/01/11 17:50:32;;;;;;;92.53;33.97;;;10.10;46.20;;;;;;5056465;28;20223;-95
2024/01/11 17:53:05;;;;;;;96.27;38.47;;;10.30;47.10;;;;;;5068161;28;20343;-94
2024/01/11 17:55:37;;;;;;;85.67;29.23;;;10.20;46.90;;;;;;5075167;28;20226;-95
2024/01/11 17:58:14;;;;;;;106.57;32.43;;;10.10;47.40;;;;;;5078892;28;20207;-95
2024/01/11 18:00:47;;;;;;;91.33;36.37;;;10.00;47.40;;;;;;5089779;28;20290;-94
2024/01/11 18:03:15;;;;;;;68.53;31.57;;;8.50;47.30;;;;;;5070304;28;20223;-94
2024/01/11 18:05:59;;;;;;;71.90;29.53;;;9.90;48.40;;;;;;5059485;28;20211;-95
2024/01/11 18:08:29;;;;;;;87.40;32.70;;;9.70;48.80;;;;;;5059310;28;20213;-95
2024/01/11 18:11:01;;;;;;;65.50;32.63;;;9.70;48.70;;;;;;5060606;28;20279;-93
2024/01/11 18:13:29;;;;;;;77.43;35.93;;;9.60;49.30;;;;;;5061534;28;20208;-95
2024/01/11 18:16:24;;;;;;;110.30;34.33;;;9.60;49.20;;;;;;5058999;28;20210;-95
2024/01/11 18:18:59;;;;;;;112.73;35.10;;;9.60;50.30;;;;;;5056782;28;20300;-95
2024/01/11 18:21:30;;;;;;;97.23;42.67;;;9.50;49.70;;;;;;5054390;28;20214;-95
2024/01/11 18:23:58;;;;;;;111.60;37.00;;;9.40;49.50;;;;;;5053650;28;20236;-95
2024/01/11 18:26:28;;;;;;;78.57;28.93;;;9.40;49.90;;;;;;5053917;28;20207;-95
2024/01/11 18:28:59;;;;;;;88.47;42.43;;;9.40;49.90;;;;;;5054722;28;20206;-93
2024/01/11 18:31:31;;;;;;;95.13;36.87;;;9.30;50.00;;;;;;5055490;28;20295;-94
2024/01/11 18:37:51;;;;;;;104.47;32.00;;;9.10;50.60;;;;;;5032189;28;20249;-96
2024/01/11 18:43:44;;;;;;;95.93;50.33;;;8.10;50.00;;;;;;4935450;29;20930;-95
2024/01/11 18:46:20;;;;;;;108.20;38.47;;;9.00;50.90;;;;;;4957531;28;20682;-96
2024/01/11 18:49:26;;;;;;;137.37;44.23;;;9.10;51.30;;;;;;4984068;28;20321;-96
2024/01/11 18:52:05;;;;;;;167.53;46.90;;;9.00;51.80;;;;;;4964763;28;20315;-95
2024/01/11 18:58:17;;;;;;;;;;;;;;;;;;;;;
2024/01/11 19:00:52;;;;;;;89.37;28.33;;;8.90;51.80;;;;;;5054405;28;20216;-96
2024/01/11 19:03:38;;;;;;;99.17;34.67;;;9.00;51.60;;;;;;5061148;28;20674;-95
2024/01/11 19:09:07;;;;;;;95.40;35.53;;;8.90;51.90;;;;;;5071626;28;20257;-96
2024/01/11 19:11:39;;;;;;;101.93;51.40;;;8.80;52.50;;;;;;5080422;28;20234;-95
2024/01/11 19:14:18;;;;;;;121.13;46.97;;;8.90;52.10;;;;;;5078546;28;20692;-96
2024/01/11 19:16:51;;;;;;;128.10;40.07;;;8.80;52.10;;;;;;5078995;28;20280;-96
2024/01/11 19:19:41;;;;;;;81.93;37.37;;;9.00;51.70;;;;;;5063101;28;20298;-96
2024/01/11 19:22:19;;;;;;;93.20;39.13;;;8.70;52.10;;;;;;5060093;28;20214;-96
2024/01/11 19:25:06;;;;;;;87.63;36.70;;;8.70;52.30;;;;;;5062361;28;20198;-96
2024/01/11 19:33:14;;;;;;;105.67;42.00;;;8.70;52.40;;;;;;5084124;28;20197;-96
2024/01/11 19:39:00;;;;;;;;;;;;;;;;;;;;;
2024/01/11 19:42:15;;;;;;;120.17;50.67;;;8.20;53.10;;;;;;5093916;28;20201;-96
2024/01/11 19:44:49;;;;;;;122.90;53.33;;;8.60;53.60;;;;;;5091320;28;20222;-96
2024/01/11 19:53:15;;;;;;;81.47;28.20;;;8.50;53.50;;;;;;5084310;28;20259;-96
2024/01/11 19:56:03;;;;;;;106.17;31.13;;;9.00;53.50;;;;;;5081815;28;20225;-95
2024/01/11 19:59:19;;;;;;;86.70;29.23;;;8.50;53.40;;;;;;5064314;28;20258;-95
2024/01/11 20:02:34;;;;;;;117.97;31.73;;;8.60;53.70;;;;;;5080196;28;20202;-96
2024/01/11 20:05:09;;;;;;;95.40;31.10;;;8.50;53.70;;;;;;5082036;28;20727;-96
2024/01/11 20:07:42;;;;;;;98.73;28.57;;;8.30;53.10;;;;;;5081145;28;20253;-96
2024/01/11 20:35:05;;;;;;;105.00;32.90;;;8.40;54.60;;;;;;4999179;28;20215;-96
2024/01/11 20:38:19;;;;;;;97.93;30.70;;;8.40;54.50;;;;;;5075871;28;20215;-96
2024/01/11 20:44:31;;;;;;;113.43;33.90;;;8.50;55.10;;;;;;5077393;28;20201;-96
2024/01/11 20:50:43;;;;;;;125.67;41.00;;;8.30;54.90;;;;;;5064789;28;20286;-96
2024/01/11 20:59:44;;;;;;;100.50;32.20;;;8.20;55.10;;;;;;5052058;28;20224;-96
2024/01/11 21:06:06;;;;;;;141.53;34.90;;;7.00;54.60;;;;;;4943265;28;20239;-96
